Airfield :
LOGIN :

Register | Disclaimer

   EN    FR    IT 

 










Legend :    VFR   Marginal VFR   IFR   Intensive IFR   Very Intensive IFR
Visi :
Ceiling :
>= 8 km
>= 3000ft
5 to 8 km
1000 to 3000 ft
1500m to 5 km
500 to 1000 ft
800 to 1500m
200 to 500 ft
< 800m
< 200 ft
Symbols :   Thunderstorms  Fog  Heavy snow  Heavy precipitations  Wind > 20 kt
SIGMETs :     Misc.  Thunderstorms  Icing  Turbulence  Mountain Waves  Volcanic Ashes







- Airport Elevation : 436 ft
- IATA code : BTS


LZIB - Bratislava

CURRENT METAR :
  • 152130Z 03003KT CAVOK 10/04 Q1022 WS ALL RWY

EXPIRED METARs :
  • 152100Z 36003KT CAVOK 11/05 Q1022 WS R13
  • 152030Z 02001KT CAVOK 12/04 Q1022 WS R13
  • 152000Z 09002KT CAVOK 12/04 Q1022 WS ALL RWY
  • 151930Z 07004KT CAVOK 10/05 Q1022 WS ALL RWY
  • 151900Z 07005KT CAVOK 11/05 Q1021 WS ALL RWY

TAF TAF LZIB
Valid from the 15 at 18:00 until the 16 at 18:00 UTC


151700Z 1518/1618 13006KT CAVOK
TEMPO 1602/1606 04005KT
TEMPO 1610/1612 14010G20KT
No reported NOTAMs for that airfield.



MET'MAP, your aeronautical weather chart ! - Copyright ORBIFLY December 2007 - Disclaimer

ORBIFLY MET'MAP TEAM :

Programming & Development : Alexandra Zaïnal
Concept & Development : Baudouin d'Aumeries
Co-Development & Prog : Marc-Olivier Méhu
Technical & hardware support : Manuel Goepfert

Contact : metmap@orbifly.com




SOURCES & CREDITS :

   NOAA